createdAt,value
2022-09-13T00:02:36.944Z,100.00
2022-09-13T00:05:25.287Z,100.00
2022-09-13T00:08:14.075Z,100.00
2022-09-13T00:11:01.954Z,100.00
2022-09-13T00:13:50.007Z,100.00
2022-09-13T00:16:37.947Z,100.00
2022-09-13T00:19:26.092Z,100.00
2022-09-13T00:22:13.821Z,100.00
2022-09-13T00:25:03.573Z,100.00
2022-09-13T00:27:51.299Z,100.00
2022-09-13T00:30:39.049Z,100.00
2022-09-13T00:33:26.745Z,100.00
2022-09-13T00:36:15.391Z,100.00
2022-09-13T00:39:03.305Z,100.00
2022-09-13T00:41:51.064Z,100.00
2022-09-13T00:44:55.209Z,100.00
2022-09-13T00:47:55.327Z,100.00
2022-09-13T00:50:53.941Z,100.00
2022-09-13T00:53:47.328Z,100.00
2022-09-13T00:56:41.850Z,100.00
2022-09-13T00:59:37.766Z,100.00
2022-09-13T01:02:27.158Z,100.00
2022-09-13T01:05:18.962Z,100.00
2022-09-13T01:08:12.721Z,100.00
2022-09-13T01:11:04.210Z,100.00
2022-09-13T01:13:52.391Z,100.00
2022-09-13T01:16:40.151Z,100.00
2022-09-13T01:19:28.027Z,100.00
2022-09-13T01:22:39.849Z,100.00
2022-09-13T01:26:01.074Z,100.00
2022-09-13T01:29:55.805Z,100.00
2022-09-13T01:33:08.143Z,100.00
2022-09-13T01:35:55.794Z,100.00
2022-09-13T01:39:06.894Z,100.00
2022-09-13T01:42:18.624Z,100.00
2022-09-13T01:45:31.192Z,100.00
2022-09-13T01:49:19.239Z,100.00
2022-09-13T01:52:54.684Z,100.00
2022-09-13T01:55:59.280Z,100.00
2022-09-13T01:59:22.292Z,100.00
2022-09-13T02:02:43.348Z,100.00
2022-09-13T02:06:01.539Z,100.00
2022-09-13T02:09:02.333Z,100.00
2022-09-13T02:11:59.860Z,100.00
2022-09-13T02:15:16.521Z,100.00
2022-09-13T02:18:18.117Z,100.00
2022-09-13T02:21:14.349Z,100.00
2022-09-13T02:24:15.831Z,100.00
2022-09-13T02:27:19.107Z,100.00
2022-09-13T02:30:12.270Z,100.00
2022-09-13T02:33:18.410Z,100.00
2022-09-13T02:36:10.539Z,100.00
2022-09-13T02:39:04.378Z,100.00
2022-09-13T02:42:04.624Z,100.00
2022-09-13T02:44:54.352Z,100.00
2022-09-13T02:47:56.800Z,100.00
2022-09-13T02:51:21.868Z,100.00
2022-09-13T02:54:15.768Z,100.00
2022-09-13T02:57:15.067Z,100.00
2022-09-13T03:00:02.791Z,100.00
2022-09-13T03:02:52.619Z,100.00
2022-09-13T03:05:40.567Z,100.00
2022-09-13T03:08:29.986Z,100.00
2022-09-13T03:11:44.810Z,100.00
2022-09-13T03:14:52.669Z,100.00
2022-09-13T03:18:04.932Z,100.00
2022-09-13T03:21:28.357Z,100.00
2022-09-13T03:24:46.021Z,100.00
2022-09-13T03:27:47.135Z,100.00
2022-09-13T03:30:38.775Z,100.00
2022-09-13T03:33:47.190Z,100.00
2022-09-13T03:36:44.462Z,100.00
2022-09-13T03:40:05.643Z,100.00
2022-09-13T03:43:20.225Z,100.00
2022-09-13T03:46:34.260Z,100.00
2022-09-13T03:49:23.614Z,100.00
2022-09-13T03:52:12.518Z,100.00
2022-09-13T03:55:00.262Z,100.00
2022-09-13T03:57:48.085Z,100.00
2022-09-13T04:00:35.853Z,100.00
2022-09-13T04:03:24.061Z,100.00
2022-09-13T04:06:11.823Z,100.00
2022-09-13T04:09:00.352Z,100.00
2022-09-13T04:11:48.206Z,100.00
2022-09-13T04:14:36.405Z,100.00
2022-09-13T04:17:24.177Z,100.00
2022-09-13T04:20:11.960Z,100.00
2022-09-13T04:22:59.698Z,100.00
2022-09-13T04:25:47.830Z,100.00
2022-09-13T04:28:35.535Z,100.00
2022-09-13T04:31:23.281Z,100.00
2022-09-13T04:34:11.276Z,100.00
2022-09-13T04:36:59.110Z,100.00
2022-09-13T04:39:46.991Z,100.00
2022-09-13T04:42:35.143Z,100.00
2022-09-13T04:45:22.970Z,100.00
2022-09-13T04:48:11.083Z,100.00
2022-09-13T04:51:05.347Z,100.00
2022-09-13T04:53:55.229Z,100.00
2022-09-13T04:56:43.755Z,100.00
2022-09-13T04:59:31.501Z,100.00
2022-09-13T05:02:19.264Z,100.00
2022-09-13T05:05:07.314Z,100.00
2022-09-13T05:07:55.823Z,100.00
2022-09-13T05:10:43.569Z,100.00
2022-09-13T05:13:31.606Z,100.00
2022-09-13T05:16:19.361Z,100.00
2022-09-13T05:19:07.269Z,100.00
2022-09-13T05:21:54.990Z,100.00
2022-09-13T05:24:43.039Z,100.00
2022-09-13T05:27:30.760Z,100.00
2022-09-13T05:30:18.585Z,100.00
2022-09-13T05:33:06.328Z,100.00
2022-09-13T05:35:54.418Z,100.00
2022-09-13T05:38:42.312Z,100.00
2022-09-13T05:41:30.029Z,100.00
2022-09-13T05:44:17.785Z,100.00
2022-09-13T05:47:05.745Z,100.00
2022-09-13T05:50:09.866Z,100.00
2022-09-13T05:52:58.708Z,100.00
2022-09-13T05:55:46.474Z,100.00
2022-09-13T05:58:35.882Z,100.00
2022-09-13T06:01:29.309Z,100.00
2022-09-13T06:04:17.196Z,100.00
2022-09-13T06:07:05.278Z,100.00
2022-09-13T06:09:53.388Z,100.00
2022-09-13T06:12:41.168Z,100.00
2022-09-13T06:15:28.893Z,100.00
2022-09-13T06:18:17.591Z,100.00
2022-09-13T06:21:11.250Z,100.00
2022-09-13T06:23:59.035Z,100.00
2022-09-13T06:26:46.772Z,100.00
2022-09-13T06:29:34.521Z,100.00
2022-09-13T06:32:22.253Z,100.00
2022-09-13T06:35:10.089Z,100.00
2022-09-13T06:37:58.672Z,100.00
2022-09-13T06:40:46.365Z,100.00
2022-09-13T06:43:34.948Z,100.00
2022-09-13T06:46:25.210Z,100.00
2022-09-13T06:49:13.276Z,100.00
2022-09-13T06:52:01.003Z,100.00
2022-09-13T06:54:48.748Z,100.00
2022-09-13T06:57:36.471Z,100.00
2022-09-13T07:00:24.192Z,100.00
2022-09-13T07:03:11.936Z,100.00
2022-09-13T07:05:59.717Z,100.00
2022-09-13T07:08:49.441Z,100.00
2022-09-13T07:11:40.052Z,100.00
2022-09-13T07:14:29.323Z,100.00
2022-09-13T07:17:17.097Z,100.00
2022-09-13T07:20:07.061Z,100.00
2022-09-13T07:22:54.776Z,100.00
2022-09-13T07:25:42.524Z,100.00
2022-09-13T07:28:35.433Z,100.00
2022-09-13T07:31:33.624Z,100.00
2022-09-13T07:34:24.415Z,100.00
2022-09-13T07:37:12.200Z,100.00
2022-09-13T07:39:59.982Z,100.00
2022-09-13T07:42:47.733Z,100.00
2022-09-13T07:45:35.431Z,100.00
2022-09-13T07:48:23.424Z,100.00
2022-09-13T07:51:23.973Z,100.00
2022-09-13T07:54:15.893Z,100.00
2022-09-13T07:57:04.117Z,100.00
2022-09-13T07:59:51.977Z,100.00
2022-09-13T08:02:39.780Z,100.00
2022-09-13T08:05:27.658Z,100.00
2022-09-13T08:08:16.280Z,100.00
2022-09-13T08:11:06.346Z,99.41
2022-09-13T08:13:54.184Z,100.00
2022-09-13T08:16:42.014Z,100.00
2022-09-13T08:19:29.737Z,99.95
2022-09-13T08:22:17.462Z,97.06
2022-09-13T08:25:06.288Z,96.72
2022-09-13T08:27:54.003Z,97.07
2022-09-13T08:30:43.510Z,96.27
2022-09-13T08:33:31.456Z,93.75
2022-09-13T08:36:19.866Z,90.56
2022-09-13T08:39:07.628Z,89.96
2022-09-13T08:42:15.653Z,88.29
2022-09-13T08:45:03.716Z,85.07
2022-09-13T08:48:14.000Z,83.03
2022-09-13T08:51:07.897Z,80.58
2022-09-13T08:53:57.588Z,81.75
2022-09-13T08:57:02.860Z,81.31
2022-09-13T09:00:04.981Z,76.72
2022-09-13T09:03:17.699Z,78.53
2022-09-13T09:06:13.774Z,78.02
2022-09-13T09:09:20.455Z,78.06
2022-09-13T09:12:32.903Z,78.39
2022-09-13T09:15:34.676Z,76.31
2022-09-13T09:18:25.812Z,75.68
2022-09-13T09:21:17.901Z,82.12
2022-09-13T09:24:06.820Z,84.10
2022-09-13T09:26:58.190Z,88.73
2022-09-13T09:29:49.871Z,93.22
2022-09-13T09:32:57.950Z,96.48
2022-09-13T09:36:14.563Z,99.64
2022-09-13T09:39:05.576Z,99.48
2022-09-13T09:41:57.584Z,100.00
2022-09-13T09:45:03.685Z,100.00
2022-09-13T09:47:53.699Z,100.00
2022-09-13T09:50:50.690Z,100.00
2022-09-13T09:53:45.713Z,98.28
2022-09-13T09:56:34.538Z,96.83
2022-09-13T09:59:33.516Z,96.82
2022-09-13T10:02:22.436Z,95.03
2022-09-13T10:05:12.813Z,97.39
2022-09-13T10:08:03.020Z,96.13
2022-09-13T10:11:00.322Z,96.15
2022-09-13T10:14:02.812Z,99.27
2022-09-13T10:17:38.309Z,98.08
2022-09-13T10:20:26.617Z,98.76
2022-09-13T10:23:14.197Z,96.58
2022-09-13T10:26:25.616Z,97.85
2022-09-13T10:29:18.716Z,93.93
2022-09-13T10:32:09.508Z,93.78
2022-09-13T10:35:16.295Z,90.71
2022-09-13T10:38:04.006Z,88.68
2022-09-13T10:40:51.779Z,89.25
2022-09-13T10:43:39.761Z,90.97
2022-09-13T10:46:34.881Z,89.03
2022-09-13T10:49:49.331Z,90.75
2022-09-13T10:52:46.564Z,86.71
2022-09-13T10:55:40.719Z,84.33
2022-09-13T10:58:28.819Z,82.95
2022-09-13T11:01:45.586Z,83.34
2022-09-13T11:04:51.298Z,85.51
2022-09-13T11:08:13.389Z,86.00
2022-09-13T11:11:25.979Z,84.74
2022-09-13T11:14:45.398Z,89.06
2022-09-13T11:18:25.279Z,89.65
2022-09-13T11:21:55.747Z,85.95
2022-09-13T11:25:29.487Z,86.20
2022-09-13T11:28:45.288Z,84.44
2022-09-13T11:31:46.513Z,85.57
2022-09-13T11:35:13.110Z,82.34
2022-09-13T11:38:40.190Z,80.49
2022-09-13T11:42:13.736Z,80.83
2022-09-13T11:45:25.237Z,79.79
2022-09-13T11:48:53.005Z,79.89
2022-09-13T11:51:50.238Z,79.51
2022-09-13T11:55:08.647Z,82.68
2022-09-13T11:58:04.731Z,82.84
2022-09-13T12:00:59.284Z,83.59
2022-09-13T12:03:55.917Z,82.50
2022-09-13T12:06:53.654Z,84.75
2022-09-13T12:09:55.327Z,81.96
2022-09-13T12:12:44.031Z,84.48
2022-09-13T12:15:41.982Z,84.24
2022-09-13T12:18:36.572Z,83.31
2022-09-13T12:21:29.615Z,81.90
2022-09-13T12:24:59.292Z,78.98
2022-09-13T12:27:57.145Z,84.01
2022-09-13T12:31:00.905Z,80.63
2022-09-13T12:33:49.455Z,79.57
2022-09-13T12:37:38.379Z,82.73
2022-09-13T12:40:53.788Z,81.29
2022-09-13T12:44:05.986Z,83.81
2022-09-13T12:47:08.065Z,82.30
2022-09-13T12:50:44.739Z,82.54
2022-09-13T12:54:21.563Z,83.94
2022-09-13T12:57:30.643Z,83.65
2022-09-13T13:00:25.929Z,83.52
2022-09-13T13:03:17.421Z,81.42
2022-09-13T13:06:37.087Z,82.35
2022-09-13T13:09:48.770Z,81.33
2022-09-13T13:12:39.564Z,79.72
2022-09-13T13:15:27.249Z,77.94
2022-09-13T13:18:46.392Z,79.70
2022-09-13T13:21:39.487Z,80.48
2022-09-13T13:24:27.587Z,81.66
2022-09-13T13:27:38.024Z,81.16
2022-09-13T13:30:52.373Z,80.63
2022-09-13T13:33:50.167Z,81.78
2022-09-13T13:36:43.546Z,81.04
2022-09-13T13:39:31.188Z,79.95
2022-09-13T13:42:35.267Z,78.16
2022-09-13T13:45:28.152Z,76.37
2022-09-13T13:48:15.933Z,75.33
2022-09-13T13:51:39.183Z,76.86
2022-09-13T13:55:01.075Z,72.92
2022-09-13T13:58:12.327Z,73.96
2022-09-13T14:01:02.577Z,75.13
2022-09-13T14:04:22.017Z,75.42
2022-09-13T14:08:19.818Z,72.17
2022-09-13T14:11:41.961Z,71.71
2022-09-13T14:14:57.767Z,73.93
2022-09-13T14:18:13.177Z,73.21
2022-09-13T14:21:20.109Z,72.10
2022-09-13T14:24:24.586Z,74.47
2022-09-13T14:27:23.799Z,76.22
2022-09-13T14:30:38.717Z,77.19
2022-09-13T14:33:35.037Z,74.47
2022-09-13T14:36:23.310Z,77.39
2022-09-13T14:39:11.039Z,79.75
2022-09-13T14:42:14.616Z,83.52
2022-09-13T14:45:02.361Z,86.71
2022-09-13T14:48:23.032Z,90.55
2022-09-13T14:51:24.133Z,94.51
2022-09-13T14:54:18.030Z,99.39
2022-09-13T14:57:10.506Z,100.00
2022-09-13T15:00:16.938Z,100.00
2022-09-13T15:03:14.419Z,100.00
2022-09-13T15:06:04.972Z,100.00
2022-09-13T15:08:58.571Z,100.00
2022-09-13T15:11:52.259Z,100.00
2022-09-13T15:14:40.040Z,100.00
2022-09-13T15:17:27.799Z,100.00
2022-09-13T15:20:15.592Z,100.00
2022-09-13T15:23:03.310Z,100.00
2022-09-13T15:26:00.836Z,100.00
2022-09-13T15:28:48.423Z,100.00
2022-09-13T15:31:36.412Z,100.00
2022-09-13T15:34:25.032Z,100.00
2022-09-13T15:37:14.789Z,100.00
2022-09-13T15:40:20.640Z,100.00
2022-09-13T15:43:08.413Z,100.00
2022-09-13T15:46:01.538Z,100.00
2022-09-13T15:49:05.905Z,100.00
2022-09-13T15:51:56.885Z,100.00
2022-09-13T15:54:49.297Z,100.00
2022-09-13T15:57:37.151Z,100.00
2022-09-13T16:00:28.171Z,100.00
2022-09-13T16:03:15.952Z,100.00
2022-09-13T16:06:03.989Z,100.00
2022-09-13T16:08:51.754Z,100.00
2022-09-13T16:11:39.478Z,100.00
2022-09-13T16:14:27.300Z,100.00
2022-09-13T16:17:27.360Z,100.00
2022-09-13T16:20:16.829Z,100.00
2022-09-13T16:23:04.558Z,100.00
2022-09-13T16:25:57.299Z,100.00
2022-09-13T16:28:45.490Z,100.00
2022-09-13T16:31:33.921Z,100.00
2022-09-13T16:34:21.831Z,100.00
2022-09-13T16:37:18.971Z,100.00
2022-09-13T16:40:09.965Z,100.00
2022-09-13T16:42:57.779Z,100.00
2022-09-13T16:45:45.499Z,100.00
2022-09-13T16:48:33.489Z,100.00
2022-09-13T16:51:22.014Z,100.00
2022-09-13T16:54:09.781Z,100.00
2022-09-13T16:56:58.604Z,100.00
2022-09-13T16:59:47.351Z,100.00
2022-09-13T17:02:35.664Z,100.00
2022-09-13T17:05:24.641Z,100.00
2022-09-13T17:08:12.369Z,100.00
2022-09-13T17:11:03.303Z,100.00
2022-09-13T17:13:51.931Z,100.00
2022-09-13T17:16:49.958Z,100.00
2022-09-13T17:19:37.689Z,100.00
2022-09-13T17:22:25.686Z,100.00
2022-09-13T17:25:13.671Z,100.00
2022-09-13T17:28:01.470Z,100.00
2022-09-13T17:30:49.233Z,100.00
2022-09-13T17:33:37.019Z,100.00
2022-09-13T17:36:24.770Z,100.00
2022-09-13T17:39:12.844Z,100.00
2022-09-13T17:42:00.696Z,100.00
2022-09-13T17:44:48.435Z,100.00
2022-09-13T17:47:36.159Z,100.00
2022-09-13T17:50:23.940Z,100.00
2022-09-13T17:53:13.045Z,100.00
2022-09-13T17:56:00.782Z,100.00
2022-09-13T17:58:49.080Z,100.00
2022-09-13T18:01:39.731Z,100.00
2022-09-13T18:04:27.542Z,100.00
2022-09-13T18:07:15.305Z,100.00
2022-09-13T18:10:03.646Z,100.00
2022-09-13T18:12:51.965Z,100.00
2022-09-13T18:15:39.721Z,100.00
2022-09-13T18:18:27.788Z,100.00
2022-09-13T18:21:18.553Z,100.00
2022-09-13T18:24:07.228Z,100.00
2022-09-13T18:26:55.137Z,100.00
2022-09-13T18:29:42.986Z,100.00
2022-09-13T18:32:30.702Z,100.00
2022-09-13T18:35:18.436Z,100.00
2022-09-13T18:38:06.165Z,100.00
2022-09-13T18:41:02.477Z,100.00
2022-09-13T18:43:55.737Z,100.00
2022-09-13T18:46:44.355Z,100.00
2022-09-13T18:49:32.216Z,100.00
2022-09-13T18:52:19.921Z,100.00
2022-09-13T18:55:08.032Z,100.00
2022-09-13T18:57:55.816Z,100.00
2022-09-13T19:00:43.591Z,100.00
2022-09-13T19:03:32.267Z,100.00
2022-09-13T19:06:31.593Z,100.00
2022-09-13T19:09:23.000Z,100.00
2022-09-13T19:12:10.776Z,100.00
2022-09-13T19:14:58.554Z,100.00
2022-09-13T19:17:46.250Z,100.00
2022-09-13T19:20:33.987Z,100.00
2022-09-13T19:23:21.734Z,100.00
2022-09-13T19:26:14.836Z,100.00
2022-09-13T19:29:06.557Z,100.00
2022-09-13T19:31:55.900Z,100.00
2022-09-13T19:34:43.724Z,100.00
2022-09-13T19:37:31.530Z,100.00
2022-09-13T19:40:19.559Z,100.00
2022-09-13T19:43:07.822Z,100.00
2022-09-13T19:46:02.096Z,100.00
2022-09-13T19:48:51.862Z,100.00
2022-09-13T19:51:41.400Z,100.00
2022-09-13T19:54:29.327Z,100.00
2022-09-13T19:57:17.034Z,100.00
2022-09-13T20:00:05.361Z,100.00
2022-09-13T20:02:53.081Z,100.00
2022-09-13T20:05:40.792Z,100.00
2022-09-13T20:08:28.661Z,100.00
2022-09-13T20:11:17.405Z,100.00
2022-09-13T20:14:06.324Z,100.00
2022-09-13T20:16:54.876Z,100.00
2022-09-13T20:19:46.389Z,100.00
2022-09-13T20:22:36.970Z,100.00
2022-09-13T20:25:24.779Z,100.00
2022-09-13T20:28:12.699Z,100.00
2022-09-13T20:31:01.771Z,100.00
2022-09-13T20:33:55.322Z,100.00
2022-09-13T20:36:47.172Z,100.00
2022-09-13T20:39:35.174Z,100.00
2022-09-13T20:42:22.933Z,100.00
2022-09-13T20:45:11.027Z,100.00
2022-09-13T20:47:58.735Z,100.00
2022-09-13T20:51:02.921Z,100.00
2022-09-13T20:54:00.428Z,100.00
2022-09-13T20:56:48.324Z,100.00
2022-09-13T20:59:36.078Z,100.00
2022-09-13T21:02:23.844Z,100.00
2022-09-13T21:05:11.634Z,100.00
2022-09-13T21:08:18.029Z,100.00
2022-09-13T21:11:06.034Z,100.00
2022-09-13T21:13:59.277Z,100.00
2022-09-13T21:16:47.688Z,100.00
2022-09-13T21:19:36.003Z,100.00
2022-09-13T21:22:24.915Z,100.00
2022-09-13T21:25:12.719Z,100.00
2022-09-13T21:28:00.469Z,100.00
2022-09-13T21:30:59.597Z,100.00
2022-09-13T21:33:47.489Z,100.00
2022-09-13T21:36:36.026Z,100.00
2022-09-13T21:39:24.009Z,100.00
2022-09-13T21:42:11.802Z,100.00
2022-09-13T21:44:59.540Z,100.00
2022-09-13T21:47:48.423Z,100.00
2022-09-13T21:50:36.123Z,100.00
2022-09-13T21:53:24.010Z,100.00
2022-09-13T21:56:15.000Z,100.00
2022-09-13T21:59:06.249Z,100.00
2022-09-13T22:01:54.536Z,100.00
2022-09-13T22:04:43.403Z,100.00
2022-09-13T22:07:31.116Z,100.00
2022-09-13T22:10:18.835Z,100.00
2022-09-13T22:13:07.025Z,100.00
2022-09-13T22:15:54.755Z,100.00
2022-09-13T22:18:42.547Z,100.00
2022-09-13T22:21:33.748Z,100.00
2022-09-13T22:24:24.559Z,100.00
2022-09-13T22:27:12.423Z,100.00
2022-09-13T22:30:00.485Z,100.00
2022-09-13T22:32:48.216Z,100.00
2022-09-13T22:35:35.912Z,100.00
2022-09-13T22:38:23.664Z,100.00
2022-09-13T22:41:18.241Z,100.00
2022-09-13T22:44:06.309Z,100.00
2022-09-13T22:46:55.273Z,100.00
2022-09-13T22:49:42.996Z,100.00
2022-09-13T22:52:31.479Z,100.00
2022-09-13T22:55:19.204Z,100.00
2022-09-13T22:58:06.926Z,100.00
2022-09-13T23:01:22.531Z,100.00
2022-09-13T23:04:11.254Z,100.00
2022-09-13T23:06:59.093Z,100.00
2022-09-13T23:09:46.803Z,100.00
2022-09-13T23:12:34.526Z,100.00
2022-09-13T23:15:22.248Z,100.00
2022-09-13T23:18:10.515Z,100.00
2022-09-13T23:20:59.164Z,100.00
2022-09-13T23:23:47.048Z,100.00
2022-09-13T23:26:35.178Z,100.00
2022-09-13T23:29:23.250Z,100.00
2022-09-13T23:32:10.976Z,100.00
2022-09-13T23:34:58.707Z,100.00
2022-09-13T23:37:49.507Z,100.00
2022-09-13T23:40:37.231Z,100.00
2022-09-13T23:43:25.304Z,100.00
2022-09-13T23:46:14.121Z,100.00
2022-09-13T23:49:01.934Z,100.00
2022-09-13T23:51:49.732Z,100.00
2022-09-13T23:54:37.482Z,100.00
2022-09-13T23:57:25.159Z,100.00
